createdAt,value
2018-08-28T00:02:20.981Z,12.87
2018-08-28T00:04:50.032Z,13.13
2018-08-28T00:07:19.051Z,13.23
2018-08-28T00:09:47.957Z,12.73
2018-08-28T00:12:16.839Z,14.00
2018-08-28T00:14:46.308Z,13.43
2018-08-28T00:17:15.154Z,13.17
2018-08-28T00:19:44.106Z,15.37
2018-08-28T00:22:13.561Z,16.70
2018-08-28T00:24:42.394Z,14.13
2018-08-28T00:27:11.443Z,15.17
2018-08-28T00:29:40.610Z,12.93
2018-08-28T00:32:09.612Z,16.67
2018-08-28T00:34:38.655Z,13.67
2018-08-28T00:37:07.686Z,14.03
2018-08-28T00:39:36.670Z,12.53
2018-08-28T00:42:05.765Z,14.00
2018-08-28T00:44:35.212Z,16.80
2018-08-28T00:47:04.404Z,12.97
2018-08-28T00:49:33.545Z,15.07
2018-08-28T00:52:02.903Z,16.20
2018-08-28T00:54:31.658Z,16.63
2018-08-28T00:57:00.659Z,13.87
2018-08-28T00:59:29.981Z,15.17
2018-08-28T01:02:00.132Z,14.37
2018-08-28T01:04:35.565Z,16.70
2018-08-28T01:07:04.605Z,14.87
2018-08-28T01:09:33.755Z,14.33
2018-08-28T01:12:02.869Z,15.70
2018-08-28T01:14:32.034Z,14.93
2018-08-28T01:17:01.670Z,15.87
2018-08-28T01:19:31.107Z,15.70
2018-08-28T01:22:03.988Z,14.57
2018-08-28T01:24:33.405Z,14.97
2018-08-28T01:27:02.383Z,14.77
2018-08-28T01:29:31.361Z,14.63
2018-08-28T01:32:00.490Z,17.00
2018-08-28T01:34:29.316Z,15.07
2018-08-28T01:36:58.324Z,17.20
2018-08-28T01:39:27.327Z,19.10
2018-08-28T01:41:56.208Z,15.43
2018-08-28T01:44:25.313Z,17.33
2018-08-28T01:46:54.314Z,17.43
2018-08-28T01:49:25.502Z,15.97
2018-08-28T01:51:54.868Z,15.57
2018-08-28T01:54:23.724Z,14.90
2018-08-28T01:56:52.596Z,19.10
2018-08-28T01:59:21.541Z,16.97
2018-08-28T02:01:56.532Z,15.80
2018-08-28T02:04:25.945Z,18.30
2018-08-28T02:06:54.879Z,18.53
2018-08-28T02:09:23.808Z,15.10
2018-08-28T02:11:52.747Z,14.93
2018-08-28T02:14:21.644Z,15.27
2018-08-28T02:16:50.556Z,18.13
2018-08-28T02:19:19.593Z,17.73
2018-08-28T02:21:48.569Z,18.40
2018-08-28T02:24:17.656Z,18.00
2018-08-28T02:26:47.118Z,16.07
2018-08-28T02:29:16.220Z,16.03
2018-08-28T02:31:45.379Z,14.00
2018-08-28T02:34:14.930Z,17.27
2018-08-28T02:36:43.959Z,18.03
2018-08-28T02:39:12.978Z,16.70
2018-08-28T02:41:43.522Z,16.17
2018-08-28T02:44:12.626Z,15.90
2018-08-28T02:46:41.726Z,15.73
2018-08-28T02:49:10.824Z,17.10
2018-08-28T02:51:39.817Z,15.53
2018-08-28T02:54:11.794Z,18.00
2018-08-28T02:56:40.810Z,16.10
2018-08-28T02:59:09.997Z,15.10
2018-08-28T03:01:40.987Z,15.97
2018-08-28T03:04:10.160Z,15.07
2018-08-28T03:06:39.307Z,14.93
2018-08-28T03:09:08.834Z,14.83
2018-08-28T03:11:37.690Z,17.20
2018-08-28T03:14:06.661Z,19.40
2018-08-28T03:16:35.764Z,14.57
2018-08-28T03:19:04.737Z,20.13
2018-08-28T03:21:33.795Z,14.03
2018-08-28T03:24:02.908Z,16.33
2018-08-28T03:26:31.748Z,17.50
2018-08-28T03:29:00.910Z,15.73
2018-08-28T03:31:29.843Z,18.23
2018-08-28T03:33:58.767Z,18.97
2018-08-28T03:36:28.060Z,15.37
2018-08-28T03:38:56.974Z,15.10
2018-08-28T03:41:27.121Z,14.83
2018-08-28T03:43:56.940Z,15.30
2018-08-28T03:46:26.002Z,16.73
2018-08-28T03:48:55.975Z,16.20
2018-08-28T03:51:25.844Z,14.83
2018-08-28T03:53:55.881Z,14.27
2018-08-28T03:56:24.925Z,13.77
2018-08-28T03:58:58.464Z,19.10
2018-08-28T04:01:27.243Z,18.03
2018-08-28T04:04:01.583Z,13.90
2018-08-28T04:06:30.669Z,19.73
2018-08-28T04:09:02.518Z,15.13
2018-08-28T04:11:36.730Z,13.53
2018-08-28T04:14:05.828Z,14.67
2018-08-28T04:16:34.853Z,15.17
2018-08-28T04:19:04.310Z,16.20
2018-08-28T04:21:33.196Z,15.07
2018-08-28T04:24:02.111Z,16.10
2018-08-28T04:26:31.547Z,15.43
2018-08-28T04:29:00.490Z,13.40
2018-08-28T04:31:29.393Z,15.20
2018-08-28T04:33:58.357Z,17.43
2018-08-28T04:36:27.464Z,14.70
2018-08-28T04:38:56.391Z,16.03
2018-08-28T04:41:25.717Z,14.23
2018-08-28T04:43:54.752Z,13.80
2018-08-28T04:46:23.662Z,15.07
2018-08-28T04:48:52.695Z,13.43
2018-08-28T04:51:23.800Z,18.83
2018-08-28T04:53:53.215Z,14.73
2018-08-28T04:56:22.300Z,14.30
2018-08-28T04:58:51.310Z,17.23
2018-08-28T05:01:20.344Z,12.97
2018-08-28T05:03:49.127Z,12.23
2018-08-28T05:06:21.250Z,12.23
2018-08-28T05:08:50.205Z,11.77
2018-08-28T05:11:19.217Z,13.87
2018-08-28T05:13:48.236Z,11.07
2018-08-28T05:16:17.208Z,12.40
2018-08-28T05:18:46.466Z,13.70
2018-08-28T05:21:15.705Z,17.40
2018-08-28T05:23:44.674Z,14.80
2018-08-28T05:26:13.702Z,12.70
2018-08-28T05:28:42.641Z,15.50
2018-08-28T05:31:11.762Z,11.33
2018-08-28T05:33:40.784Z,12.27
2018-08-28T05:36:09.868Z,13.23
2018-08-28T05:38:38.905Z,14.00
2018-08-28T05:41:07.814Z,11.97
2018-08-28T05:43:37.223Z,13.90
2018-08-28T05:46:06.467Z,12.80
2018-08-28T05:48:35.461Z,12.63
2018-08-28T05:51:04.572Z,13.32
2018-08-28T05:53:33.655Z,13.38
2018-08-28T05:56:02.620Z,10.80
2018-08-28T05:58:31.746Z,10.35
2018-08-28T06:01:00.926Z,12.18
2018-08-28T06:03:30.198Z,13.90
2018-08-28T06:05:59.182Z,14.03
2018-08-28T06:08:29.284Z,11.45
2018-08-28T06:10:59.910Z,10.78
2018-08-28T06:13:28.938Z,10.38
2018-08-28T06:15:57.755Z,9.85
2018-08-28T06:18:26.756Z,9.83
2018-08-28T06:20:55.768Z,9.38
2018-08-28T06:23:24.701Z,11.08
2018-08-28T06:25:53.544Z,10.72
2018-08-28T06:28:23.529Z,11.93
2018-08-28T06:30:52.557Z,12.93
2018-08-28T06:33:21.494Z,9.53
2018-08-28T06:35:50.430Z,10.13
2018-08-28T06:38:19.394Z,10.60
2018-08-28T06:40:48.428Z,9.38
2018-08-28T06:43:19.303Z,8.98
2018-08-28T06:45:48.560Z,12.13
2018-08-28T06:48:17.476Z,8.88
2018-08-28T06:50:46.373Z,8.60
2018-08-28T06:53:15.614Z,9.78
2018-08-28T06:55:45.385Z,15.48
2018-08-28T06:58:14.305Z,11.15
2018-08-28T07:00:44.119Z,9.28
2018-08-28T07:03:13.293Z,13.28
2018-08-28T07:05:42.411Z,11.05
2018-08-28T07:08:11.904Z,8.85
2018-08-28T07:10:40.952Z,8.88
2018-08-28T07:13:09.717Z,12.65
2018-08-28T07:15:38.853Z,9.45
2018-08-28T07:18:07.692Z,8.58
2018-08-28T07:20:36.958Z,10.30
2018-08-28T07:23:06.017Z,12.10
2018-08-28T07:25:34.931Z,10.90
2018-08-28T07:28:04.104Z,10.82
2018-08-28T07:30:33.461Z,7.80
2018-08-28T07:33:02.274Z,8.23
2018-08-28T07:35:31.249Z,7.75
2018-08-28T07:38:00.156Z,8.20
2018-08-28T07:40:29.035Z,12.18
2018-08-28T07:42:58.095Z,9.10
2018-08-28T07:45:27.092Z,8.73
2018-08-28T07:47:56.174Z,11.15
2018-08-28T07:50:25.198Z,8.43
2018-08-28T07:52:54.892Z,10.98
2018-08-28T07:55:23.754Z,9.63
2018-08-28T07:57:52.645Z,8.63
2018-08-28T08:00:21.716Z,12.37
2018-08-28T08:02:50.661Z,9.68
2018-08-28T08:05:19.818Z,18.57
2018-08-28T08:07:49.224Z,8.85
2018-08-28T08:10:18.600Z,10.55
2018-08-28T08:12:47.634Z,11.78
2018-08-28T08:15:16.905Z,15.83
2018-08-28T08:17:45.825Z,9.05
2018-08-28T08:20:14.691Z,11.93
2018-08-28T08:22:43.607Z,11.25
2018-08-28T08:25:12.567Z,9.48
2018-08-28T08:27:41.623Z,11.15
2018-08-28T08:30:10.712Z,10.68
2018-08-28T08:32:39.602Z,10.23
2018-08-28T08:35:08.851Z,8.18
2018-08-28T08:37:38.339Z,12.45
2018-08-28T08:40:07.369Z,11.20
2018-08-28T08:42:36.456Z,10.35
2018-08-28T08:45:05.645Z,10.20
2018-08-28T08:47:34.500Z,9.15
2018-08-28T08:50:03.389Z,9.93
2018-08-28T08:52:32.698Z,8.63
2018-08-28T08:55:01.546Z,8.65
2018-08-28T08:57:30.572Z,8.00
2018-08-28T08:59:59.982Z,12.05
2018-08-28T09:02:29.067Z,7.80
2018-08-28T09:04:58.071Z,7.10
2018-08-28T09:07:27.681Z,7.75
2018-08-28T09:09:56.681Z,7.28
2018-08-28T09:12:25.548Z,7.95
2018-08-28T09:14:54.644Z,8.00
2018-08-28T09:17:23.700Z,6.25
2018-08-28T09:19:52.800Z,9.33
2018-08-28T09:22:22.335Z,6.72
2018-08-28T09:24:51.408Z,6.92
2018-08-28T09:27:20.485Z,8.43
2018-08-28T09:29:49.850Z,7.37
2018-08-28T09:32:18.715Z,12.18
2018-08-28T09:34:47.753Z,8.93
2018-08-28T09:37:17.291Z,8.38
2018-08-28T09:39:46.328Z,7.20
2018-08-28T09:42:15.227Z,8.65
2018-08-28T09:44:44.660Z,8.35
2018-08-28T09:47:13.677Z,6.47
2018-08-28T09:49:42.763Z,7.08
2018-08-28T09:52:12.210Z,8.25
2018-08-28T09:54:41.208Z,8.10
2018-08-28T09:57:10.180Z,9.80
2018-08-28T09:59:38.951Z,8.83
2018-08-28T10:02:08.133Z,6.90
2018-08-28T10:04:38.269Z,7.75
2018-08-28T10:07:07.248Z,6.65
2018-08-28T10:09:36.357Z,8.00
2018-08-28T10:12:05.483Z,10.43
2018-08-28T10:14:34.576Z,6.85
2018-08-28T10:17:03.575Z,8.60
2018-08-28T10:19:32.603Z,11.65
2018-08-28T10:22:01.600Z,10.90
2018-08-28T10:24:30.492Z,8.23
2018-08-28T10:26:59.444Z,6.72
2018-08-28T10:29:28.749Z,8.38
2018-08-28T10:31:57.590Z,6.60
2018-08-28T10:34:26.511Z,7.92
2018-08-28T10:36:56.141Z,6.53
2018-08-28T10:39:25.068Z,9.75
2018-08-28T10:41:54.024Z,8.23
2018-08-28T10:44:22.871Z,7.42
2018-08-28T10:46:52.022Z,6.55
2018-08-28T10:49:20.668Z,7.00
2018-08-28T10:51:49.929Z,6.83
2018-08-28T10:54:18.916Z,12.80
2018-08-28T10:56:47.708Z,10.18
2018-08-28T10:59:17.261Z,9.23
2018-08-28T11:01:46.235Z,7.42
2018-08-28T11:04:15.418Z,9.20
2018-08-28T11:06:44.436Z,7.45
2018-08-28T11:09:13.518Z,7.53
2018-08-28T11:11:42.988Z,7.42
2018-08-28T11:14:14.276Z,8.13
2018-08-28T11:16:43.089Z,8.38
2018-08-28T11:19:11.980Z,6.17
2018-08-28T11:21:40.935Z,12.15
2018-08-28T11:24:09.945Z,8.85
2018-08-28T11:26:38.990Z,11.83
2018-08-28T11:29:08.430Z,5.70
2018-08-28T11:31:37.281Z,8.30
2018-08-28T11:34:06.321Z,11.55
2018-08-28T11:36:36.085Z,5.50
2018-08-28T11:39:05.702Z,7.30
2018-08-28T11:41:34.865Z,8.65
2018-08-28T11:44:04.201Z,9.65
2018-08-28T11:46:33.143Z,8.28
2018-08-28T11:49:01.932Z,9.40
2018-08-28T11:51:31.255Z,7.78
2018-08-28T11:54:00.160Z,9.85
2018-08-28T11:56:29.121Z,8.65
2018-08-28T11:58:58.534Z,8.15
2018-08-28T12:01:27.503Z,9.88
2018-08-28T12:03:56.668Z,8.90
2018-08-28T12:06:26.013Z,6.53
2018-08-28T12:08:55.037Z,7.97
2018-08-28T12:11:24.051Z,8.78
2018-08-28T12:13:54.026Z,5.28
2018-08-28T12:16:23.033Z,7.58
2018-08-28T12:18:51.929Z,8.63
2018-08-28T12:21:20.893Z,9.83
2018-08-28T12:23:50.000Z,7.28
2018-08-28T12:26:19.040Z,9.08
2018-08-28T12:28:48.447Z,9.33
2018-08-28T12:31:17.459Z,11.50
2018-08-28T12:33:46.494Z,9.53
2018-08-28T12:36:15.463Z,10.63
2018-08-28T12:38:44.612Z,14.00
2018-08-28T12:41:13.477Z,7.05
2018-08-28T12:43:42.855Z,9.45
2018-08-28T12:46:11.853Z,10.45
2018-08-28T12:48:40.945Z,8.15
2018-08-28T12:51:10.154Z,5.67
2018-08-28T12:53:39.108Z,8.50
2018-08-28T12:56:08.191Z,9.03
2018-08-28T12:58:37.510Z,6.72
2018-08-28T13:01:06.919Z,10.38
2018-08-28T13:03:36.001Z,14.47
2018-08-28T13:06:05.238Z,11.83
2018-08-28T13:08:34.019Z,8.30
2018-08-28T13:11:02.997Z,5.22
2018-08-28T13:13:31.968Z,6.58
2018-08-28T13:16:01.112Z,6.85
2018-08-28T13:18:30.002Z,7.50
2018-08-28T13:20:59.103Z,7.72
2018-08-28T13:23:28.000Z,6.75
2018-08-28T13:25:57.062Z,7.33
2018-08-28T13:28:25.961Z,7.25
2018-08-28T13:30:55.007Z,9.50
2018-08-28T13:33:24.125Z,11.35
2018-08-28T13:35:54.407Z,7.10
2018-08-28T13:41:03.348Z,6.92
2018-08-28T13:43:32.317Z,9.55
2018-08-28T13:46:01.375Z,8.30
2018-08-28T13:48:30.277Z,7.92
2018-08-28T13:50:59.293Z,7.78
2018-08-28T13:53:28.151Z,12.20
2018-08-28T13:55:57.423Z,8.15
2018-08-28T13:58:26.412Z,9.85
2018-08-28T14:00:55.350Z,9.88
2018-08-28T14:03:24.497Z,8.28
2018-08-28T14:05:58.718Z,8.88
2018-08-28T14:08:34.016Z,7.92
2018-08-28T14:11:06.371Z,8.18
2018-08-28T14:13:35.709Z,7.95
2018-08-28T14:16:04.681Z,9.00
2018-08-28T14:18:33.692Z,7.97
2018-08-28T14:21:03.706Z,12.25
2018-08-28T14:23:32.778Z,10.05
2018-08-28T14:26:01.973Z,8.53
2018-08-28T14:28:32.427Z,8.23
2018-08-28T14:31:01.401Z,7.50
2018-08-28T14:33:30.294Z,7.80
2018-08-28T14:35:59.597Z,9.90
2018-08-28T14:38:28.583Z,10.35
2018-08-28T14:40:57.530Z,11.73
2018-08-28T14:43:26.853Z,6.62
2018-08-28T14:45:56.405Z,9.95
2018-08-28T14:48:25.375Z,5.05
2018-08-28T14:50:54.291Z,9.90
2018-08-28T14:53:23.286Z,10.68
2018-08-28T14:55:52.361Z,8.20
2018-08-28T14:58:21.798Z,8.73
2018-08-28T15:00:51.107Z,8.33
2018-08-28T15:03:20.001Z,9.35
2018-08-28T15:05:49.141Z,10.20
2018-08-28T15:08:18.132Z,10.78
2018-08-28T15:10:47.146Z,10.58
2018-08-28T15:13:16.236Z,12.63
2018-08-28T15:15:45.190Z,10.75
2018-08-28T15:18:14.185Z,9.48
2018-08-28T15:20:43.532Z,9.88
2018-08-28T15:23:13.786Z,7.85
2018-08-28T15:25:43.066Z,10.82
2018-08-28T15:28:13.277Z,9.83
2018-08-28T15:30:42.511Z,7.62
2018-08-28T15:33:11.915Z,7.00
2018-08-28T15:35:40.779Z,8.25
2018-08-28T15:38:09.897Z,10.32
2018-08-28T15:40:39.255Z,10.75
2018-08-28T15:43:08.253Z,8.50
2018-08-28T15:45:37.228Z,12.25
2018-08-28T15:48:06.738Z,9.78
2018-08-28T15:50:35.635Z,9.98
2018-08-28T15:53:04.625Z,12.30
2018-08-28T15:55:34.002Z,10.25
2018-08-28T15:58:03.048Z,13.83
2018-08-28T16:00:32.026Z,11.70
2018-08-28T16:03:01.013Z,16.00
2018-08-28T16:05:30.015Z,13.25
2018-08-28T16:07:58.982Z,15.10
2018-08-28T16:10:28.621Z,8.80
2018-08-28T16:12:57.508Z,9.43
2018-08-28T16:15:26.441Z,16.02
2018-08-28T16:17:55.696Z,8.30
2018-08-28T16:20:25.593Z,9.38
2018-08-28T16:22:59.573Z,8.35
2018-08-28T16:25:28.382Z,7.03
2018-08-28T16:27:57.402Z,7.17
2018-08-28T16:30:26.644Z,12.25
2018-08-28T16:32:55.617Z,9.05
2018-08-28T16:35:24.614Z,8.80
2018-08-28T16:37:54.944Z,8.03
2018-08-28T16:40:23.880Z,13.00
2018-08-28T16:42:52.768Z,8.68
2018-08-28T16:45:22.159Z,7.78
2018-08-28T16:47:51.238Z,11.12
2018-08-28T16:50:20.251Z,8.50
2018-08-28T16:52:49.691Z,6.55
2018-08-28T16:55:18.641Z,10.85
2018-08-28T16:57:47.592Z,7.67
2018-08-28T17:00:16.968Z,11.05
2018-08-28T17:02:45.870Z,8.53
2018-08-28T17:05:14.723Z,15.60
2018-08-28T17:07:44.261Z,7.10
2018-08-28T17:10:13.212Z,10.58
2018-08-28T17:12:42.275Z,10.72
2018-08-28T17:15:11.987Z,12.23
2018-08-28T17:17:40.968Z,8.63
2018-08-28T17:20:09.791Z,8.15
2018-08-28T17:22:38.792Z,8.95
2018-08-28T17:25:07.857Z,9.88
2018-08-28T17:27:36.648Z,9.65
2018-08-28T17:30:05.950Z,10.23
2018-08-28T17:32:34.918Z,17.98
2018-08-28T17:35:03.803Z,10.35
2018-08-28T17:37:32.848Z,12.23
2018-08-28T17:40:01.849Z,16.05
2018-08-28T17:42:30.884Z,18.80
2018-08-28T17:44:59.715Z,11.10
2018-08-28T17:47:28.616Z,10.00
2018-08-28T17:49:57.592Z,12.03
2018-08-28T17:52:26.534Z,9.28
2018-08-28T17:54:55.455Z,12.68
2018-08-28T17:57:24.405Z,13.00
2018-08-28T17:59:53.663Z,11.73
2018-08-28T18:02:22.776Z,18.15
2018-08-28T18:04:51.638Z,12.15
2018-08-28T18:07:20.696Z,13.15
2018-08-28T18:09:49.633Z,13.40
2018-08-28T18:12:18.560Z,10.45
2018-08-28T18:14:47.821Z,13.72
2018-08-28T18:17:16.784Z,12.70
2018-08-28T18:19:46.007Z,13.88
2018-08-28T18:22:14.825Z,11.22
2018-08-28T18:24:43.691Z,9.15
2018-08-28T18:27:12.680Z,10.05
2018-08-28T18:29:41.841Z,9.40
2018-08-28T18:32:10.788Z,9.83
2018-08-28T18:34:39.895Z,13.70
2018-08-28T18:37:09.133Z,18.02
2018-08-28T18:39:38.109Z,9.93
2018-08-28T18:42:07.079Z,11.18
2018-08-28T18:44:36.536Z,9.58
2018-08-28T18:47:05.595Z,13.95
2018-08-28T18:49:34.430Z,11.80
2018-08-28T18:52:03.437Z,12.50
2018-08-28T18:54:32.348Z,10.50
2018-08-28T18:57:01.253Z,10.28
2018-08-28T18:59:30.649Z,10.40
2018-08-28T19:01:59.606Z,8.55
2018-08-28T19:04:28.501Z,12.20
2018-08-28T19:06:57.479Z,12.35
2018-08-28T19:09:26.439Z,10.72
2018-08-28T19:11:55.290Z,12.80
2018-08-28T19:14:24.597Z,12.40
2018-08-28T19:16:53.586Z,9.33
2018-08-28T19:19:22.640Z,13.05
2018-08-28T19:21:51.514Z,10.05
2018-08-28T19:24:20.423Z,16.05
2018-08-28T19:26:49.316Z,14.13
2018-08-28T19:29:18.474Z,26.65
2018-08-28T19:31:47.618Z,21.50
2018-08-28T19:34:16.575Z,12.63
2018-08-28T19:36:45.976Z,13.15
2018-08-28T19:39:14.933Z,13.88
2018-08-28T19:41:43.884Z,9.13
2018-08-28T19:44:13.035Z,13.43
2018-08-28T19:46:42.144Z,11.50
2018-08-28T19:49:11.208Z,17.23
2018-08-28T19:51:40.362Z,12.23
2018-08-28T19:54:09.339Z,12.25
2018-08-28T19:56:38.511Z,13.03
2018-08-28T19:59:07.872Z,12.47
2018-08-28T20:01:36.854Z,9.63
2018-08-28T20:04:06.157Z,10.60
2018-08-28T20:06:35.348Z,12.33
2018-08-28T20:09:04.573Z,13.35
2018-08-28T20:11:33.593Z,14.83
2018-08-28T20:14:02.807Z,12.45
2018-08-28T20:16:31.689Z,15.80
2018-08-28T20:19:00.793Z,16.15
2018-08-28T20:21:30.079Z,13.67
2018-08-28T20:23:59.126Z,18.40
2018-08-28T20:26:28.205Z,17.37
2018-08-28T20:28:57.591Z,11.37
2018-08-28T20:31:26.541Z,14.27
2018-08-28T20:33:55.369Z,12.07
2018-08-28T20:36:24.483Z,15.43
2018-08-28T20:38:53.415Z,14.67
2018-08-28T20:41:22.420Z,11.77
2018-08-28T20:43:54.622Z,14.43
2018-08-28T20:46:23.933Z,12.97
2018-08-28T20:48:53.349Z,11.57
2018-08-28T20:51:22.300Z,12.10
2018-08-28T20:53:51.355Z,12.77
2018-08-28T20:56:20.696Z,12.17
2018-08-28T20:58:49.629Z,11.70
2018-08-28T21:01:17.458Z,13.67
2018-08-28T21:03:46.743Z,13.33
2018-08-28T21:06:15.725Z,13.27
2018-08-28T21:08:44.649Z,11.63
2018-08-28T21:11:14.020Z,13.80
2018-08-28T21:13:42.864Z,13.10
2018-08-28T21:16:11.908Z,11.95
2018-08-28T21:18:41.025Z,13.10
2018-08-28T21:21:10.022Z,15.37
2018-08-28T21:23:39.499Z,12.03
2018-08-28T21:26:08.796Z,11.70
2018-08-28T21:28:37.657Z,11.60
2018-08-28T21:31:06.601Z,14.10
2018-08-28T21:33:35.610Z,14.67
2018-08-28T21:36:04.552Z,13.10
2018-08-28T21:38:33.624Z,10.53
2018-08-28T21:41:03.462Z,13.73
2018-08-28T21:43:33.216Z,11.70
2018-08-28T21:46:02.093Z,11.93
2018-08-28T21:48:31.472Z,8.37
2018-08-28T21:51:00.482Z,12.27
2018-08-28T21:53:29.528Z,10.40
2018-08-28T21:55:58.930Z,12.87
2018-08-28T21:58:27.765Z,12.03
2018-08-28T22:01:01.862Z,12.43
2018-08-28T22:03:30.764Z,11.50
2018-08-28T22:05:59.862Z,11.77
2018-08-28T22:08:29.494Z,12.53
2018-08-28T22:10:58.443Z,11.33
2018-08-28T22:13:27.511Z,14.80
2018-08-28T22:15:56.914Z,10.67
2018-08-28T22:18:26.034Z,8.43
2018-08-28T22:20:56.151Z,13.17
2018-08-28T22:23:26.065Z,11.17
2018-08-28T22:25:55.041Z,11.47
2018-08-28T22:28:24.114Z,9.87
2018-08-28T22:30:53.376Z,11.13
2018-08-28T22:33:22.271Z,10.90
2018-08-28T22:35:51.247Z,11.17
2018-08-28T22:38:20.442Z,11.17
2018-08-28T22:40:49.263Z,11.73
2018-08-28T22:43:24.050Z,11.43
2018-08-28T22:45:53.209Z,14.03
2018-08-28T22:48:22.201Z,12.10
2018-08-28T22:50:51.647Z,14.93
2018-08-28T22:53:20.529Z,11.33
2018-08-28T22:55:49.448Z,10.97
2018-08-28T22:58:18.731Z,9.60
2018-08-28T23:00:47.651Z,11.30
2018-08-28T23:03:16.549Z,16.63
2018-08-28T23:05:45.445Z,10.90
2018-08-28T23:08:14.463Z,11.37
2018-08-28T23:10:43.379Z,12.50
2018-08-28T23:13:12.268Z,10.97
2018-08-28T23:15:41.146Z,13.60
2018-08-28T23:18:09.999Z,12.17
2018-08-28T23:20:39.227Z,10.40
2018-08-28T23:23:08.223Z,11.77
2018-08-28T23:25:37.234Z,14.50
2018-08-28T23:28:06.212Z,11.53
2018-08-28T23:30:35.120Z,14.83
2018-08-28T23:33:04.033Z,9.53
2018-08-28T23:35:33.438Z,14.03
2018-08-28T23:38:02.464Z,10.57
2018-08-28T23:40:31.459Z,10.43
2018-08-28T23:43:00.442Z,10.27
2018-08-28T23:45:29.636Z,12.10
2018-08-28T23:47:58.447Z,14.13
2018-08-28T23:50:27.833Z,11.27
2018-08-28T23:52:56.740Z,12.20
2018-08-28T23:55:25.786Z,10.70
2018-08-28T23:57:55.113Z,13.23
